createdAt,value
2024-05-09T00:01:22.522Z,87.55
2024-05-09T00:02:22.529Z,88.38
2024-05-09T00:03:22.564Z,86.11
2024-05-09T00:04:22.533Z,86.59
2024-05-09T00:05:22.620Z,86.61
2024-05-09T00:06:22.509Z,86.67
2024-05-09T00:07:22.523Z,86.70
2024-05-09T00:08:22.597Z,86.28
2024-05-09T00:09:22.515Z,86.41
2024-05-09T00:10:29.143Z,85.57
2024-05-09T00:11:23.693Z,85.67
2024-05-09T00:12:22.581Z,85.96
2024-05-09T00:13:22.531Z,86.04
2024-05-09T00:14:22.540Z,86.44
2024-05-09T00:15:22.518Z,86.67
2024-05-09T00:16:22.512Z,86.08
2024-05-09T00:17:22.640Z,86.92
2024-05-09T00:18:22.666Z,87.42
2024-05-09T00:19:22.620Z,87.50
2024-05-09T00:20:28.411Z,85.79
2024-05-09T00:21:23.527Z,85.81
2024-05-09T00:22:22.532Z,86.04
2024-05-09T00:23:22.571Z,85.91
2024-05-09T00:24:22.532Z,85.48
2024-05-09T00:25:22.523Z,86.00
2024-05-09T00:26:22.661Z,86.28
2024-05-09T00:27:22.543Z,86.65
2024-05-09T00:28:22.531Z,86.42
2024-05-09T00:29:22.574Z,85.32
2024-05-09T00:30:31.073Z,84.98
2024-05-09T00:31:23.535Z,85.04
2024-05-09T00:32:22.647Z,85.16
2024-05-09T00:33:22.726Z,85.35
2024-05-09T00:34:22.644Z,85.92
2024-05-09T00:35:22.622Z,84.71
2024-05-09T00:36:22.554Z,86.91
2024-05-09T00:37:22.561Z,85.93
2024-05-09T00:38:22.585Z,86.13
2024-05-09T00:39:22.571Z,84.60
2024-05-09T00:40:30.931Z,84.94
2024-05-09T00:41:23.617Z,84.97
2024-05-09T00:42:22.552Z,85.18
2024-05-09T00:43:22.560Z,85.03
2024-05-09T00:44:22.731Z,85.35
2024-05-09T00:45:22.555Z,85.17
2024-05-09T00:46:22.558Z,85.35
2024-05-09T00:47:22.757Z,85.39
2024-05-09T00:48:22.684Z,83.64
2024-05-09T00:49:22.751Z,85.49
2024-05-09T00:50:29.598Z,85.16
2024-05-09T00:51:23.588Z,85.20
2024-05-09T00:52:22.560Z,85.36
2024-05-09T00:53:22.610Z,85.27
2024-05-09T00:54:22.553Z,85.45
2024-05-09T00:55:22.558Z,85.08
2024-05-09T00:56:22.678Z,85.26
2024-05-09T00:57:22.567Z,85.03
2024-05-09T00:58:22.559Z,83.63
2024-05-09T00:59:22.647Z,83.99
2024-05-09T01:00:31.088Z,85.14
2024-05-09T01:01:23.652Z,84.92
2024-05-09T01:02:22.678Z,85.27
2024-05-09T01:03:22.999Z,84.54
2024-05-09T01:04:22.600Z,85.45
2024-05-09T01:05:22.630Z,84.38
2024-05-09T01:06:22.608Z,83.79
2024-05-09T01:07:22.587Z,84.40
2024-05-09T01:08:22.615Z,84.79
2024-05-09T01:09:22.577Z,83.73
2024-05-09T01:10:28.172Z,82.89
2024-05-09T01:11:23.685Z,82.96
2024-05-09T01:12:22.642Z,83.19
2024-05-09T01:13:22.598Z,83.34
2024-05-09T01:14:22.615Z,83.62
2024-05-09T01:15:22.581Z,83.62
2024-05-09T01:16:22.593Z,83.61
2024-05-09T01:17:22.642Z,84.08
2024-05-09T01:18:22.685Z,83.89
2024-05-09T01:19:22.755Z,83.46
2024-05-09T01:21:22.639Z,84.17
2024-05-09T01:22:22.614Z,83.45
2024-05-09T01:23:22.686Z,82.90
2024-05-09T01:24:22.720Z,83.22
2024-05-09T01:25:22.747Z,83.36
2024-05-09T01:26:22.880Z,84.41
2024-05-09T01:27:22.844Z,83.21
2024-05-09T01:28:22.908Z,84.02
2024-05-09T01:29:23.039Z,83.68
2024-05-09T01:30:31.266Z,82.41
2024-05-09T01:31:24.014Z,82.46
2024-05-09T01:32:23.266Z,82.60
2024-05-09T01:33:23.270Z,82.69
2024-05-09T01:34:23.060Z,82.23
2024-05-09T01:35:23.143Z,82.33
2024-05-09T01:36:23.016Z,82.87
2024-05-09T01:37:23.089Z,82.85
2024-05-09T01:38:23.186Z,83.26
2024-05-09T01:39:23.031Z,82.02
2024-05-09T01:40:32.712Z,83.10
2024-05-09T01:41:24.116Z,83.12
2024-05-09T01:42:23.036Z,83.19
2024-05-09T01:43:23.036Z,83.12
2024-05-09T01:44:23.160Z,82.05
2024-05-09T01:45:23.044Z,83.19
2024-05-09T01:46:23.152Z,82.22
2024-05-09T01:47:23.306Z,83.35
2024-05-09T01:48:23.212Z,81.24
2024-05-09T01:49:23.157Z,82.43
2024-05-09T01:50:34.266Z,82.34
2024-05-09T01:51:24.098Z,82.41
2024-05-09T01:52:23.088Z,82.44
2024-05-09T01:53:23.100Z,81.41
2024-05-09T01:54:23.041Z,83.00
2024-05-09T01:55:23.046Z,83.83
2024-05-09T01:56:23.105Z,81.86
2024-05-09T01:57:23.056Z,82.06
2024-05-09T01:58:23.078Z,81.78
2024-05-09T01:59:23.174Z,81.51
2024-05-09T02:00:33.274Z,81.84
2024-05-09T02:01:24.105Z,81.86
2024-05-09T02:02:23.143Z,81.87
2024-05-09T02:03:23.180Z,81.65
2024-05-09T02:04:23.196Z,81.40
2024-05-09T02:05:23.374Z,82.15
2024-05-09T02:06:23.126Z,80.46
2024-05-09T02:07:23.059Z,82.21
2024-05-09T02:08:23.106Z,81.52
2024-05-09T02:09:23.054Z,80.12
2024-05-09T02:10:29.945Z,81.51
2024-05-09T02:11:24.235Z,81.54
2024-05-09T02:12:23.149Z,81.58
2024-05-09T02:13:23.076Z,81.71
2024-05-09T02:14:23.148Z,81.59
2024-05-09T02:15:23.079Z,81.81
2024-05-09T02:16:23.064Z,81.43
2024-05-09T02:17:23.246Z,82.17
2024-05-09T02:18:23.302Z,81.34
2024-05-09T02:19:23.226Z,81.88
2024-05-09T02:20:30.540Z,79.99
2024-05-09T02:21:24.107Z,80.06
2024-05-09T02:22:23.082Z,80.21
2024-05-09T02:23:23.099Z,80.52
2024-05-09T02:24:23.074Z,80.59
2024-05-09T02:25:23.093Z,80.89
2024-05-09T02:26:23.142Z,79.38
2024-05-09T02:27:23.103Z,80.84
2024-05-09T02:28:23.087Z,80.58
2024-05-09T02:29:23.154Z,80.00
2024-05-09T02:30:30.695Z,79.65
2024-05-09T02:31:24.084Z,79.74
2024-05-09T02:32:23.185Z,79.87
2024-05-09T02:33:23.653Z,79.79
2024-05-09T02:34:23.437Z,80.44
2024-05-09T02:35:23.209Z,80.19
2024-05-09T02:36:23.097Z,79.84
2024-05-09T02:37:23.088Z,79.61
2024-05-09T02:38:23.180Z,79.30
2024-05-09T02:39:23.089Z,79.79
2024-05-09T02:41:23.192Z,78.73
2024-05-09T02:42:23.153Z,79.93
2024-05-09T02:43:23.167Z,78.28
2024-05-09T02:44:23.411Z,79.58
2024-05-09T02:45:23.263Z,80.29
2024-05-09T02:46:23.329Z,78.90
2024-05-09T02:47:23.550Z,80.13
2024-05-09T02:48:23.645Z,79.47
2024-05-09T02:49:23.721Z,79.57
2024-05-09T02:50:30.582Z,78.90
2024-05-09T02:51:24.564Z,78.96
2024-05-09T02:52:23.558Z,79.12
2024-05-09T02:53:23.648Z,79.22
2024-05-09T02:54:23.554Z,79.19
2024-05-09T02:55:23.578Z,78.82
2024-05-09T02:56:23.619Z,79.66
2024-05-09T02:57:23.564Z,78.40
2024-05-09T02:58:23.556Z,79.72
2024-05-09T02:59:23.734Z,78.26
2024-05-09T03:00:29.823Z,79.02
2024-05-09T03:01:24.635Z,79.10
2024-05-09T03:02:23.694Z,78.11
2024-05-09T03:03:24.086Z,78.85
2024-05-09T03:04:23.605Z,78.53
2024-05-09T03:05:23.602Z,79.20
2024-05-09T03:06:23.566Z,78.91
2024-05-09T03:07:23.583Z,77.32
2024-05-09T03:08:23.584Z,77.60
2024-05-09T03:09:23.566Z,78.90
2024-05-09T03:10:28.491Z,79.73
2024-05-09T03:11:24.685Z,79.74
2024-05-09T03:12:23.684Z,78.44
2024-05-09T03:13:23.572Z,78.42
2024-05-09T03:14:23.565Z,78.20
2024-05-09T03:15:23.574Z,78.04
2024-05-09T03:16:23.579Z,78.17
2024-05-09T03:17:23.834Z,78.62
2024-05-09T03:18:23.666Z,77.36
2024-05-09T03:19:23.624Z,77.69
2024-05-09T03:20:27.705Z,78.32
2024-05-09T03:21:24.597Z,78.38
2024-05-09T03:22:23.589Z,78.56
2024-05-09T03:23:23.732Z,78.71
2024-05-09T03:24:23.595Z,78.58
2024-05-09T03:25:23.589Z,78.30
2024-05-09T03:26:23.675Z,78.01
2024-05-09T03:27:23.596Z,78.50
2024-05-09T03:28:23.599Z,78.50
2024-05-09T03:29:23.624Z,77.55
2024-05-09T03:30:30.979Z,78.21
2024-05-09T03:31:24.645Z,78.26
2024-05-09T03:32:23.700Z,78.41
2024-05-09T03:33:24.034Z,78.40
2024-05-09T03:34:23.650Z,78.61
2024-05-09T03:35:23.780Z,78.04
2024-05-09T03:36:23.601Z,77.97
2024-05-09T03:37:23.606Z,78.56
2024-05-09T03:38:23.655Z,78.47
2024-05-09T03:39:23.598Z,77.29
2024-05-09T03:40:26.492Z,78.42
2024-05-09T03:41:24.680Z,78.44
2024-05-09T03:42:23.606Z,78.54
2024-05-09T03:43:23.623Z,78.59
2024-05-09T03:44:23.679Z,77.13
2024-05-09T03:45:23.609Z,77.84
2024-05-09T03:46:23.611Z,78.33
2024-05-09T03:47:23.786Z,77.05
2024-05-09T03:48:23.773Z,77.37
2024-05-09T03:49:23.708Z,77.78
2024-05-09T03:51:23.619Z,77.88
2024-05-09T03:52:23.631Z,78.28
2024-05-09T03:53:23.730Z,76.59
2024-05-09T03:54:23.713Z,74.83
2024-05-09T03:55:23.779Z,76.96
2024-05-09T03:56:23.866Z,78.45
2024-05-09T03:57:23.892Z,77.14
2024-05-09T03:58:23.947Z,76.93
2024-05-09T03:59:24.012Z,76.55
2024-05-09T04:00:31.188Z,76.39
2024-05-09T04:01:25.131Z,76.48
2024-05-09T04:02:24.136Z,76.54
2024-05-09T04:03:24.295Z,76.62
2024-05-09T04:04:24.164Z,76.44
2024-05-09T04:05:24.103Z,76.94
2024-05-09T04:06:24.071Z,76.57
2024-05-09T04:07:24.078Z,77.46
2024-05-09T04:08:24.098Z,76.27
2024-05-09T04:09:24.078Z,75.64
2024-05-09T04:10:31.016Z,75.85
2024-05-09T04:11:25.156Z,75.94
2024-05-09T04:12:24.090Z,76.17
2024-05-09T04:13:24.076Z,76.16
2024-05-09T04:14:24.123Z,77.01
2024-05-09T04:15:24.103Z,77.00
2024-05-09T04:16:24.073Z,77.53
2024-05-09T04:17:24.145Z,77.09
2024-05-09T04:18:24.213Z,76.73
2024-05-09T04:19:24.313Z,76.01
2024-05-09T04:20:33.477Z,76.24
2024-05-09T04:21:25.087Z,76.31
2024-05-09T04:22:24.109Z,76.33
2024-05-09T04:23:24.142Z,76.70
2024-05-09T04:24:24.107Z,76.90
2024-05-09T04:25:24.089Z,75.99
2024-05-09T04:26:24.199Z,77.92
2024-05-09T04:27:24.110Z,76.40
2024-05-09T04:28:24.130Z,75.24
2024-05-09T04:29:24.213Z,75.34
2024-05-09T04:30:33.793Z,75.72
2024-05-09T04:31:25.111Z,75.74
2024-05-09T04:32:24.369Z,75.91
2024-05-09T04:33:24.517Z,75.89
2024-05-09T04:34:24.250Z,76.10
2024-05-09T04:35:24.271Z,76.08
2024-05-09T04:36:31.632Z,50.00
2024-05-09T04:37:31.647Z,50.00
2024-05-09T04:38:31.765Z,50.00
2024-05-09T04:39:31.623Z,50.00
2024-05-09T04:40:35.084Z,50.00
2024-05-09T04:41:32.663Z,50.00
2024-05-09T04:42:31.647Z,50.00
2024-05-09T04:43:31.642Z,50.00
2024-05-09T04:44:31.666Z,50.00
2024-05-09T04:45:31.644Z,50.00
2024-05-09T04:46:31.636Z,52.53
2024-05-09T04:47:31.756Z,52.24
2024-05-09T04:48:31.734Z,50.01
2024-05-09T04:49:31.685Z,50.99
2024-05-09T04:50:36.976Z,51.68
2024-05-09T04:51:32.647Z,51.84
2024-05-09T04:52:31.653Z,51.53
2024-05-09T04:53:31.726Z,53.00
2024-05-09T04:54:36.245Z,51.93
2024-05-09T04:55:32.665Z,51.82
2024-05-09T04:56:31.720Z,52.25
2024-05-09T04:57:31.670Z,52.06
2024-05-09T04:58:31.666Z,51.83
2024-05-09T04:59:31.818Z,50.89
2024-05-09T05:00:36.285Z,51.89
2024-05-09T05:01:32.704Z,52.04
2024-05-09T05:02:31.735Z,52.26
2024-05-09T05:03:31.980Z,50.63
2024-05-09T05:04:31.701Z,51.89
2024-05-09T05:05:31.763Z,50.39
2024-05-09T05:06:31.678Z,51.11
2024-05-09T05:07:31.686Z,51.81
2024-05-09T05:08:31.878Z,52.19
2024-05-09T05:09:31.681Z,49.99
2024-05-09T05:10:35.922Z,53.84
2024-05-09T05:11:32.752Z,53.96
2024-05-09T05:12:31.827Z,53.93
2024-05-09T05:13:31.693Z,54.53
2024-05-09T05:14:31.763Z,53.68
2024-05-09T05:15:31.687Z,51.46
2024-05-09T05:16:31.688Z,53.67
2024-05-09T05:17:31.936Z,51.80
2024-05-09T05:18:31.719Z,53.00
2024-05-09T05:19:31.820Z,53.02
2024-05-09T05:20:33.796Z,51.91
2024-05-09T05:21:31.971Z,54.14
2024-05-09T05:22:31.994Z,52.03
2024-05-09T05:23:32.079Z,52.65
2024-05-09T05:24:32.106Z,51.66
2024-05-09T05:25:32.165Z,52.10
2024-05-09T05:26:32.334Z,52.31
2024-05-09T05:27:32.262Z,51.60
2024-05-09T05:28:32.323Z,52.23
2024-05-09T05:29:32.412Z,51.11
2024-05-09T05:30:34.666Z,53.69
2024-05-09T05:31:32.465Z,54.39
2024-05-09T05:32:32.580Z,52.97
2024-05-09T05:33:32.662Z,53.66
2024-05-09T05:34:32.437Z,52.28
2024-05-09T05:35:32.716Z,52.89
2024-05-09T05:36:32.448Z,53.65
2024-05-09T05:37:32.451Z,54.18
2024-05-09T05:38:32.617Z,52.84
2024-05-09T05:39:32.443Z,54.48
2024-05-09T05:40:36.569Z,50.45
2024-05-09T05:41:33.546Z,50.69
2024-05-09T05:42:32.466Z,51.15
2024-05-09T05:43:32.488Z,52.58
2024-05-09T05:44:32.554Z,54.03
2024-05-09T05:45:32.454Z,53.73
2024-05-09T05:46:32.453Z,53.79
2024-05-09T05:47:32.559Z,53.31
2024-05-09T05:48:32.575Z,52.54
2024-05-09T05:49:32.528Z,52.18
2024-05-09T05:50:36.270Z,52.41
2024-05-09T05:51:33.456Z,52.52
2024-05-09T05:52:32.463Z,52.22
2024-05-09T05:53:32.541Z,51.39
2024-05-09T05:54:32.488Z,53.60
2024-05-09T05:55:32.455Z,52.23
2024-05-09T05:56:32.537Z,50.95
2024-05-09T05:57:32.525Z,53.11
2024-05-09T05:58:32.478Z,52.28
2024-05-09T05:59:32.631Z,53.00
2024-05-09T06:00:37.996Z,53.00
2024-05-09T06:01:33.525Z,53.01
2024-05-09T06:02:32.601Z,53.14
2024-05-09T06:03:32.653Z,53.51
2024-05-09T06:04:32.545Z,51.52
2024-05-09T06:05:32.887Z,51.17
2024-05-09T06:06:32.474Z,51.87
2024-05-09T06:07:32.507Z,52.92
2024-05-09T06:08:32.506Z,50.00
2024-05-09T06:09:32.485Z,50.98
2024-05-09T06:11:32.615Z,53.80
2024-05-09T06:12:32.515Z,55.17
2024-05-09T06:13:32.505Z,53.40
2024-05-09T06:14:32.678Z,52.01
2024-05-09T06:15:32.601Z,52.64
2024-05-09T06:16:32.653Z,51.19
2024-05-09T06:17:32.871Z,51.48
2024-05-09T06:18:32.880Z,51.48
2024-05-09T06:19:33.005Z,52.20
2024-05-09T06:20:36.370Z,50.00
2024-05-09T06:21:33.867Z,50.18
2024-05-09T06:22:32.909Z,50.53
2024-05-09T06:23:32.983Z,50.76
2024-05-09T06:24:32.893Z,52.48
2024-05-09T06:25:32.872Z,51.43
2024-05-09T06:26:32.963Z,53.35
2024-05-09T06:27:32.905Z,52.75
2024-05-09T06:28:32.877Z,51.20
2024-05-09T06:29:32.921Z,52.94
2024-05-09T06:30:38.433Z,55.15
2024-05-09T06:31:33.892Z,55.21
2024-05-09T06:32:33.006Z,54.52
2024-05-09T06:33:33.304Z,55.19
2024-05-09T06:34:32.981Z,53.70
2024-05-09T06:35:33.041Z,55.38
2024-05-09T06:36:32.902Z,52.32
2024-05-09T06:37:32.994Z,51.82
2024-05-09T06:38:32.941Z,54.89
2024-05-09T06:39:32.915Z,52.90
2024-05-09T06:40:37.539Z,53.01
2024-05-09T06:41:33.996Z,53.07
2024-05-09T06:42:32.934Z,53.34
2024-05-09T06:43:32.925Z,53.18
2024-05-09T06:44:33.000Z,52.89
2024-05-09T06:45:32.928Z,53.10
2024-05-09T06:46:32.907Z,52.80
2024-05-09T06:47:33.128Z,55.38
2024-05-09T06:48:33.040Z,51.02
2024-05-09T06:49:33.019Z,54.06
2024-05-09T06:50:37.528Z,54.57
2024-05-09T06:51:33.919Z,54.59
2024-05-09T06:52:32.952Z,51.50
2024-05-09T06:53:33.150Z,54.89
2024-05-09T06:54:32.928Z,54.79
2024-05-09T06:55:32.977Z,54.25
2024-05-09T06:56:33.015Z,51.12
2024-05-09T06:57:32.964Z,51.19
2024-05-09T06:58:32.936Z,51.24
2024-05-09T06:59:33.032Z,51.48
2024-05-09T07:00:38.651Z,52.25
2024-05-09T07:01:33.979Z,52.35
2024-05-09T07:02:33.064Z,52.67
2024-05-09T07:03:33.068Z,52.68
2024-05-09T07:04:33.036Z,52.78
2024-05-09T07:05:33.058Z,52.52
2024-05-09T07:06:32.952Z,51.52
2024-05-09T07:07:32.981Z,51.68
2024-05-09T07:08:33.082Z,53.89
2024-05-09T07:09:32.960Z,51.69
2024-05-09T07:10:35.443Z,50.52
2024-05-09T07:11:33.102Z,51.81
2024-05-09T07:12:33.162Z,53.20
2024-05-09T07:13:32.970Z,52.96
2024-05-09T07:14:34.478Z,50.85
2024-05-09T07:15:32.980Z,51.32
2024-05-09T07:16:32.984Z,51.32
2024-05-09T07:17:33.125Z,50.17
2024-05-09T07:18:33.160Z,50.39
2024-05-09T07:19:33.052Z,50.41
2024-05-09T07:20:34.982Z,53.29
2024-05-09T07:21:32.982Z,53.08
2024-05-09T07:22:33.014Z,54.19
2024-05-09T07:23:33.048Z,54.07
2024-05-09T07:24:32.992Z,51.05
2024-05-09T07:25:33.046Z,53.43
2024-05-09T07:26:33.120Z,53.91
2024-05-09T07:27:33.119Z,53.59
2024-05-09T07:28:33.139Z,51.35
2024-05-09T07:29:34.753Z,53.10
2024-05-09T07:30:34.631Z,52.84
2024-05-09T07:31:33.170Z,52.92
2024-05-09T07:32:33.363Z,53.19
2024-05-09T07:33:33.300Z,53.94
2024-05-09T07:34:33.274Z,55.03
2024-05-09T07:35:33.422Z,53.82
2024-05-09T07:36:33.180Z,52.68
2024-05-09T07:37:33.180Z,53.51
2024-05-09T07:38:33.289Z,54.53
2024-05-09T07:39:33.188Z,52.37
2024-05-09T07:40:36.425Z,51.89
2024-05-09T07:41:33.254Z,51.97
2024-05-09T07:42:33.185Z,52.01
2024-05-09T07:43:33.206Z,52.53
2024-05-09T07:44:33.322Z,52.75
2024-05-09T07:50:34.122Z,52.11
2024-05-09T07:52:23.574Z,52.31
2024-05-09T07:53:33.170Z,52.33
2024-05-09T07:53:41.937Z,52.43
2024-05-09T07:54:34.433Z,52.48
2024-05-09T07:55:33.427Z,54.94
2024-05-09T07:56:33.338Z,56.74
2024-05-09T07:57:33.293Z,59.59
2024-05-09T07:58:33.226Z,61.06
2024-05-09T07:59:37.171Z,58.48
2024-05-09T08:00:33.442Z,58.59
2024-05-09T08:01:33.311Z,58.60
2024-05-09T08:02:33.362Z,58.71
2024-05-09T08:03:33.482Z,57.77
2024-05-09T08:04:33.310Z,57.48
2024-05-09T08:05:33.444Z,55.40
2024-05-09T08:06:33.256Z,54.74
2024-05-09T08:07:33.226Z,53.39
2024-05-09T08:08:33.236Z,56.03
2024-05-09T08:09:33.904Z,54.67
2024-05-09T08:10:33.252Z,52.63
2024-05-09T08:11:33.309Z,52.35
2024-05-09T08:12:33.274Z,52.71
2024-05-09T08:13:33.250Z,51.23
2024-05-09T08:14:33.236Z,51.56
2024-05-09T08:15:33.295Z,51.25
2024-05-09T08:16:33.278Z,50.00
2024-05-09T08:17:33.342Z,51.87
2024-05-09T08:18:33.518Z,53.03
2024-05-09T08:19:33.270Z,50.69
2024-05-09T08:20:35.307Z,54.30
2024-05-09T08:21:33.303Z,54.80
2024-05-09T08:22:33.235Z,53.26
2024-05-09T08:23:33.256Z,51.61
2024-05-09T08:24:33.260Z,52.91
2024-05-09T08:25:33.268Z,52.93
2024-05-09T08:26:33.280Z,53.18
2024-05-09T08:27:33.333Z,54.28
2024-05-09T08:28:33.359Z,52.80
2024-05-09T08:29:33.338Z,51.55
2024-05-09T08:30:37.018Z,51.80
2024-05-09T08:31:33.421Z,51.95
2024-05-09T08:32:33.427Z,52.05
2024-05-09T08:33:33.600Z,52.41
2024-05-09T08:34:33.422Z,52.30
2024-05-09T08:35:33.366Z,54.71
2024-05-09T08:36:33.397Z,54.10
2024-05-09T08:37:37.928Z,54.84
2024-05-09T08:38:34.365Z,54.94
2024-05-09T08:39:33.393Z,54.94
2024-05-09T08:40:36.031Z,52.85
2024-05-09T08:41:33.374Z,54.94
2024-05-09T08:42:33.464Z,54.80
2024-05-09T08:43:33.457Z,54.88
2024-05-09T08:44:33.391Z,54.52
2024-05-09T08:45:33.427Z,51.00
2024-05-09T08:46:33.397Z,55.46
2024-05-09T08:47:33.480Z,54.28
2024-05-09T08:48:33.542Z,54.38
2024-05-09T08:49:33.463Z,51.82
2024-05-09T08:50:38.783Z,56.11
2024-05-09T08:51:34.454Z,56.23
2024-05-09T08:52:33.370Z,56.50
2024-05-09T08:53:33.390Z,56.53
2024-05-09T08:54:33.443Z,55.01
2024-05-09T08:55:33.428Z,53.98
2024-05-09T08:56:33.377Z,55.24
2024-05-09T08:57:33.417Z,55.90
2024-05-09T08:58:33.391Z,56.66
2024-05-09T08:59:33.389Z,54.90
2024-05-09T09:00:37.081Z,56.14
2024-05-09T09:01:33.502Z,56.18
2024-05-09T09:02:33.495Z,56.20
2024-05-09T09:03:33.807Z,56.05
2024-05-09T09:04:33.492Z,55.89
2024-05-09T09:05:33.596Z,55.88
2024-05-09T09:06:33.414Z,53.30
2024-05-09T09:07:33.465Z,55.88
2024-05-09T09:08:33.449Z,55.62
2024-05-09T09:09:33.457Z,55.77
2024-05-09T09:10:33.735Z,54.74
2024-05-09T09:11:33.466Z,53.45
2024-05-09T09:12:33.484Z,54.71
2024-05-09T09:13:33.446Z,55.20
2024-05-09T09:14:33.415Z,54.31
2024-05-09T09:15:33.457Z,52.90
2024-05-09T09:16:33.488Z,53.78
2024-05-09T09:17:33.727Z,54.22
2024-05-09T09:18:33.625Z,56.23
2024-05-09T09:19:33.565Z,52.93
2024-05-09T09:20:36.345Z,55.35
2024-05-09T09:21:33.506Z,55.41
2024-05-09T09:22:33.434Z,55.54
2024-05-09T09:23:33.463Z,54.66
2024-05-09T09:24:33.473Z,55.78
2024-05-09T09:25:33.462Z,52.14
2024-05-09T09:26:33.463Z,55.70
2024-05-09T09:27:33.498Z,52.31
2024-05-09T09:28:33.433Z,55.14
2024-05-09T09:29:33.445Z,54.74
2024-05-09T09:30:37.355Z,53.18
2024-05-09T09:31:33.564Z,53.40
2024-05-09T09:32:33.548Z,54.06
2024-05-09T09:33:33.643Z,54.08
2024-05-09T09:34:33.573Z,54.07
2024-05-09T09:35:33.469Z,54.30
2024-05-09T09:36:33.557Z,55.80
2024-05-09T09:37:33.465Z,53.39
2024-05-09T09:38:33.462Z,52.05
2024-05-09T09:39:33.516Z,55.53
2024-05-09T09:40:35.911Z,52.44
2024-05-09T09:41:34.472Z,52.60
2024-05-09T09:42:33.520Z,53.17
2024-05-09T09:43:33.475Z,53.89
2024-05-09T09:44:34.179Z,53.85
2024-05-09T09:45:33.495Z,55.97
2024-05-09T09:46:33.534Z,54.73
2024-05-09T09:47:33.584Z,53.81
2024-05-09T09:48:33.521Z,52.42
2024-05-09T09:49:33.563Z,54.62
2024-05-09T09:50:34.964Z,54.30
2024-05-09T09:51:33.513Z,55.90
2024-05-09T09:52:33.535Z,54.16
2024-05-09T09:53:33.486Z,53.62
2024-05-09T09:54:33.584Z,56.04
2024-05-09T09:55:33.519Z,55.48
2024-05-09T09:56:33.491Z,52.50
2024-05-09T09:57:33.559Z,52.82
2024-05-09T09:58:33.530Z,54.21
2024-05-09T09:59:33.493Z,53.74
2024-05-09T10:00:34.169Z,52.71
2024-05-09T10:01:33.595Z,50.35
2024-05-09T10:02:33.649Z,53.35
2024-05-09T10:03:33.668Z,53.90
2024-05-09T10:04:33.616Z,53.29
2024-05-09T10:05:33.842Z,52.87
2024-05-09T10:06:33.550Z,53.96
2024-05-09T10:07:33.526Z,55.11
2024-05-09T10:08:33.518Z,52.91
2024-05-09T10:09:33.557Z,52.06
2024-05-09T10:10:33.787Z,52.20
2024-05-09T10:11:39.552Z,52.23
2024-05-09T10:12:34.667Z,52.34
2024-05-09T10:13:33.648Z,52.62
2024-05-09T10:14:33.546Z,52.49
2024-05-09T10:15:33.588Z,52.91
2024-05-09T10:16:33.627Z,52.58
2024-05-09T10:17:33.653Z,51.62
2024-05-09T10:18:34.423Z,52.95
2024-05-09T10:19:33.698Z,54.31
2024-05-09T10:20:33.581Z,54.83
2024-05-09T10:21:33.620Z,54.18
2024-05-09T10:22:33.596Z,55.55
2024-05-09T10:23:33.570Z,52.90
2024-05-09T10:24:33.591Z,54.17
2024-05-09T10:25:33.602Z,52.90
2024-05-09T10:26:33.568Z,54.54
2024-05-09T10:27:33.625Z,52.50
2024-05-09T10:28:33.619Z,52.58
2024-05-09T10:29:33.579Z,54.06
2024-05-09T10:30:36.054Z,52.85
2024-05-09T10:31:33.615Z,55.08
2024-05-09T10:32:33.673Z,54.53
2024-05-09T10:33:33.701Z,54.74
2024-05-09T10:34:33.643Z,52.64
2024-05-09T10:35:33.575Z,52.28
2024-05-09T10:36:33.640Z,53.89
2024-05-09T10:37:33.654Z,55.60
2024-05-09T10:38:33.586Z,53.54
2024-05-09T10:39:33.700Z,53.57
2024-05-09T10:40:33.643Z,54.48
2024-05-09T10:41:33.576Z,55.85
2024-05-09T10:42:33.636Z,51.81
2024-05-09T10:43:33.599Z,52.76
2024-05-09T10:44:33.612Z,51.06
2024-05-09T10:45:33.607Z,54.13
2024-05-09T10:46:33.589Z,52.72
2024-05-09T10:47:33.652Z,52.63
2024-05-09T10:48:33.698Z,54.47
2024-05-09T10:49:33.623Z,53.84
2024-05-09T10:50:34.566Z,55.18
2024-05-09T10:51:33.686Z,52.76
2024-05-09T10:52:33.612Z,55.06
2024-05-09T10:53:33.605Z,52.78
2024-05-09T10:54:33.632Z,55.39
2024-05-09T10:55:33.641Z,54.34
2024-05-09T10:56:33.607Z,52.33
2024-05-09T10:57:33.622Z,52.97
2024-05-09T10:58:33.624Z,54.46
2024-05-09T10:59:33.616Z,53.59
2024-05-09T11:00:36.236Z,51.55
2024-05-09T11:01:33.680Z,54.23
2024-05-09T11:02:33.709Z,55.81
2024-05-09T11:03:33.836Z,55.00
2024-05-09T11:04:33.734Z,51.83
2024-05-09T11:05:33.799Z,53.15
2024-05-09T11:06:33.625Z,52.87
2024-05-09T11:07:33.644Z,52.45
2024-05-09T11:08:33.641Z,53.12
2024-05-09T11:09:33.680Z,52.41
2024-05-09T11:10:34.499Z,50.23
2024-05-09T11:11:33.664Z,53.46
2024-05-09T11:12:33.705Z,53.88
2024-05-09T11:13:33.715Z,51.68
2024-05-09T11:14:33.627Z,53.53
2024-05-09T11:15:33.681Z,53.30
2024-05-09T11:16:33.631Z,52.47
2024-05-09T11:17:33.680Z,50.92
2024-05-09T11:18:36.811Z,52.94
2024-05-09T11:19:34.706Z,53.04
2024-05-09T11:20:35.323Z,53.22
2024-05-09T11:21:33.667Z,52.87
2024-05-09T11:22:33.642Z,54.90
2024-05-09T11:23:33.640Z,53.42
2024-05-09T11:24:33.702Z,57.09
2024-05-09T11:25:33.652Z,56.15
2024-05-09T11:26:33.686Z,56.27
2024-05-09T11:27:33.774Z,54.16
2024-05-09T11:28:33.824Z,55.07
2024-05-09T11:29:33.928Z,54.18
2024-05-09T11:30:34.083Z,53.52
2024-05-09T11:31:34.183Z,54.74
2024-05-09T11:32:34.146Z,53.85
2024-05-09T11:33:34.334Z,52.67
2024-05-09T11:34:34.344Z,51.70
2024-05-09T11:35:34.284Z,55.03
2024-05-09T11:36:34.384Z,51.81
2024-05-09T11:37:37.145Z,52.52
2024-05-09T11:38:34.429Z,53.90
2024-05-09T11:39:34.455Z,53.27
2024-05-09T11:40:34.896Z,52.94
2024-05-09T11:41:34.424Z,55.41
2024-05-09T11:42:34.447Z,54.50
2024-05-09T11:43:34.451Z,54.88
2024-05-09T11:44:34.419Z,55.67
2024-05-09T11:45:34.500Z,53.52
2024-05-09T11:46:34.429Z,54.63
2024-05-09T11:47:34.551Z,52.65
2024-05-09T11:48:34.640Z,53.34
2024-05-09T11:49:34.510Z,55.60
2024-05-09T11:50:35.995Z,54.58
2024-05-09T11:51:34.449Z,54.78
2024-05-09T11:52:34.417Z,55.41
2024-05-09T11:53:34.460Z,52.35
2024-05-09T11:54:34.488Z,52.65
2024-05-09T11:55:34.461Z,53.20
2024-05-09T11:56:34.424Z,51.74
2024-05-09T11:57:34.464Z,53.77
2024-05-09T11:58:34.528Z,53.27
2024-05-09T11:59:34.500Z,52.35
2024-05-09T12:00:37.405Z,52.21
2024-05-09T12:01:34.634Z,53.04
2024-05-09T12:02:34.697Z,53.21
2024-05-09T12:03:34.693Z,53.32
2024-05-09T12:04:34.659Z,54.66
2024-05-09T12:05:34.905Z,52.05
2024-05-09T12:06:34.621Z,54.12
2024-05-09T12:07:34.576Z,50.73
2024-05-09T12:08:34.578Z,52.60
2024-05-09T12:09:34.667Z,53.93
2024-05-09T12:10:36.322Z,52.75
2024-05-09T12:11:34.646Z,53.19
2024-05-09T12:12:37.103Z,52.67
2024-05-09T12:13:34.695Z,52.40
2024-05-09T12:14:34.623Z,54.38
2024-05-09T12:15:34.664Z,55.10
2024-05-09T12:16:34.705Z,54.59
2024-05-09T12:17:34.741Z,52.33
2024-05-09T12:18:34.765Z,54.60
2024-05-09T12:19:34.742Z,53.26
2024-05-09T12:20:37.835Z,52.97
2024-05-09T12:21:35.704Z,53.10
2024-05-09T12:22:34.640Z,53.23
2024-05-09T12:23:34.660Z,54.36
2024-05-09T12:24:34.696Z,55.04
2024-05-09T12:25:34.665Z,54.66
2024-05-09T12:26:34.624Z,56.40
2024-05-09T12:27:34.652Z,53.76
2024-05-09T12:28:34.646Z,56.19
2024-05-09T12:29:36.259Z,51.73
2024-05-09T12:30:38.642Z,55.98
2024-05-09T12:31:35.748Z,56.07
2024-05-09T12:32:34.791Z,56.34
2024-05-09T12:33:34.892Z,56.35
2024-05-09T12:34:34.812Z,56.86
2024-05-09T12:35:34.732Z,54.88
2024-05-09T12:36:34.772Z,55.47
2024-05-09T12:37:34.723Z,55.22
2024-05-09T12:38:34.762Z,54.62
2024-05-09T12:39:34.882Z,55.48
2024-05-09T12:40:37.828Z,55.02
2024-05-09T12:41:34.892Z,55.11
2024-05-09T12:42:34.920Z,55.31
2024-05-09T12:43:34.928Z,55.46
2024-05-09T12:44:34.902Z,55.73
2024-05-09T12:45:34.932Z,54.26
2024-05-09T12:46:34.969Z,55.35
2024-05-09T12:47:34.954Z,53.97
2024-05-09T12:48:35.305Z,55.20
2024-05-09T12:49:35.111Z,54.42
2024-05-09T12:50:35.393Z,54.04
2024-05-09T12:51:34.926Z,54.21
2024-05-09T12:52:34.909Z,53.27
2024-05-09T12:53:34.914Z,54.59
2024-05-09T12:54:34.963Z,55.10
2024-05-09T12:55:43.901Z,53.62
2024-05-09T12:56:35.925Z,53.77
2024-05-09T12:57:34.966Z,54.27
2024-05-09T12:58:34.973Z,54.29
2024-05-09T12:59:34.911Z,55.17
2024-05-09T13:00:34.973Z,57.10
2024-05-09T13:01:34.990Z,55.81
2024-05-09T13:02:35.107Z,54.35